KNMI Weerbulletins

Hier vind u de KMNI verwachtingen en de waarnemingen

Bron: KNMI website
Laatste update op 15-08-2020 om 21:09
ZCZC
FBNL50 EHDB 151531
WEERBULLETIN VOOR DE LUCHTVAART
.
GELDIG 151500/152100 UTC
.
SITUATIE: ER STAAT EEN ZWAKKE, GELEIDELIJK OVERWEGEND NOORDOOSTELIJKE
STROMING. DE OPBOUW IS ONSTABIEL TOT BOVEN FL100. IN DE TWEEDE HELFT
VAN DE PERIODE WORDT DE OPBOUW OP DE MEESTE PLAATSEN GELEIDELIJK
STABIEL.
.
SIGNIFICANT WEER: VOORAL IN HET ZUIDEN EN OOSTEN, LOKAAL OOK ELDERS,
ONTWIKKELING VAN  ENKELE GEISOLEERDE, MOGELIJK GECLUSTERDE, MATIGE
TOT ZWARE ONWEERSBUIEN MET KANS OP HAGEL. IN DE TWEEDE HELFT VAN DE
PERIODE NEEMT DE BUIENACTIVITEIT DEELS AF. AAN HET EINDE VAN DE
PERIODE IS ER KANS OP LOKAAL NEVEL.
.
WIND: IN HET NOORDEN NOORDOOSTELIJK 5-10 KN, LANGS DE KUST 10-15 KN.
ELDERS ZWAK EN VERANDERLIJK, LANG DE WESTKUST OVERWEGEND
NOORDWESTELIJK 5-10 KN. IN DE LOOP VAN DE PERIODE VAN HET NOORDEN UIT
GELEIDELIJK OVERAL OVERWEGEND NOORD TOT NOORDOOST 2-7 KN, IN HET
WADDENGEBIED AANHOUDEND NOORDOOST 10-15 KN.
.
BEWOLKING: SCT, LOKAAL BKN, CU/SC 3000-4000 VT, TOPPEN 5000 VT,
HALVERWEGE DE PERIODE GROTENDEELS OPLOSSEND. IN EEN BUI FEW/SCT,
VOORAL IN HET OOSTEN EN ZUIDEN MOGELIJK BKN, CB ROND 3000 VT, TOPPEN
BOVEN FL100.
.
ZICHT: MEER DAN 10 KM. IN EEN BUI 3-8 KM, IN EEN ZWAARDERE BUI
MOGELIJK KORTSTONDIG 1500-3000 M. AAN HET EINDE VAN DE PERIODE OP
MEERDERE PLAATSEN TERUGLOPEND NAAR 5-8 KM, MOGELIJK LOKAAL 3-5 KM.
.
NULGRADEN NIVEAU: BOVEN FL100.
.
HOOGTEWINDEN EN TEMPERATUREN:
       15 UTC:       21 UTC:
0500VT 010/05-15 +25 060/10-15 +22
1500VT 010/05-10 +22 080/10-15 +20
3000VT 040/05-10 +17 090/10-15 +17
FL 050 100/05-10 +13 120/10-15 +13
FL 100 150/05-10 +03 130/10-15 +03
HOOGSTE WINDSNELHEDEN IN HET NOORDEN.
.
THERMIEK: MATIG, VOORAL IN HET NOORDEN EN OOSTEN LOKAAL VERZWAKT DOOR
BEWOLKING. VOORAL IN HET OOSTEN EN ZUIDEN AF EN TOE VERSTOORD DOOR
BUIEN. ROND 17:45 UTC UITDOVEND.
.
VOORUITZICHTEN VOOR MORGEN: AANVANKELIJK OP VEEL PLAATSEN
NEVEL/GRONDMIST, MOGELIJK LOKAAL MIST(BANKEN), IN DE LOOP VAN DE
OCHTEND OPLOSSEND. VANAF HALVERWEGE DE MIDDAG ENKELE GEISOLEERDE
MATIGE REGEN- EN ONWEERSBUIEN, LOKAAL MET HAGEL EN WINDSTOTEN TOT CA.
25 KN. VANAF HET EINDE VAN DE MIDDAG VAN HET ZUIDEN UIT STERK
TOENEMENDE KANS OP MATIGE TOT ZWARE (GECLUSTERDE) ONWEERSBUIEN,
LOKAAL MET HAGEL EN WINDSTOTEN TOT CA. 35 KN.
.
DAGLICHTPERIODE: 04.10 TOT 19.18 UTC.=
NNNN
Bron: KNMI website
Laatste update op 15-08-2020 om 21:09
ZCZC
FC151700 EHGR     GILZE-RIJEN/GILZE-RIJEN   NLD   14 m.
TAF EHGR 151700Z NIL=
ZCZC
FC151700 EHKD     DE KOOY/DE KOOY   NLD   1 m.
TAF EHKD 151700Z NIL=
ZCZC
FC151700 EHLW     LEEUWARDEN/LEEUWARDEN   NLD   1 m.
TAF EHLW 151630Z 1517/1605 05005KT 9999 CAVOK
    BECMG 1523/1601 4000 BR MIFG
    PROB30 1602/1605 0400 FG=
ZCZC
FC151700 EHVK     VOLKEL/VOLKEL   NLD   21 m.
TAF EHVK 151628Z 1517/1605 VRB02KT CAVOK
    PROB40 TEMPO 1517/1521 VRB15G25KT 3500 SHRA TSRA SCT025CB
    BKN030
    PROB30 TEMPO 1517/1521 VRB20G30KT 1500 +TSRAGR SCT012
    BKN020CB
    BECMG 1600/1605 3000 BR MIFG=
ZCZC
FC151700 EHWO     WOENSDRECHT/WOENSDRECHT   NLD   19 m.
TAF EHWO 151700Z NIL=
ZCZC
FT151700 EHAM     AMSTERDAM/SCHIPHOL   NLD   -3 m.
TAF EHAM 151708Z 1518/1624 36005KT 9999 SCT035
    PROB30 1522/1606 4500 BR MIFG
    BECMG 1603/1605 09005KT
    PROB40 TEMPO 1611/1622 5000 SHRA TSRA SCT035CB
    TEMPO 1615/1618 VRB15G35KT 2500 +SHRA TSRAGR BKN025CB=
ZCZC
FT151700 EHBK     MAASTRICHT/MAASTRICHT-AACHEN   NLD   114 m.
TAF EHBK 151723Z 1518/1624 VRB05KT 9999 SCT030
    PROB30 TEMPO 1518/1519 VRB10G20KT 4000 SHRA TSRA FEW030CB
    PROB30 1600/1608 6000
    TEMPO 1612/1622 VRB10G20KT 3000 SHRA TSRA SCT035CB
    PROB30 TEMPO 1614/1617 VRB25G35KT 2500 +TSRA TSRAGR
    BKN030CB=
ZCZC
FT151700 EHGG RRA GRONINGEN/EELDE   NLD   5 m.
TAF EHGG 151726Z 1518/1624 04005KT CAVOK
    BECMG 1521/1524 4000 BR
    PROB40 1601/1606 0800 BCFG
    BECMG 1606/1609 9999 NSW
    TEMPO 1615/1623 VRB20G30KT 4000 SHRA TSRA SCT030CB=
ZCZC
FT151700 EHLE     LELYSTAD/LELYSTAD   NLD   -3 m.
TAF EHLE 151708Z 1518/1624 01006KT 9999 SCT035
    PROB30 TEMPO 1518/1520 VRB15KT 4000 TSRA SCT030CB
    PROB30 1522/1606 4500 BR MIFG
    BECMG 1603/1605 08005KT
    PROB40 TEMPO 1613/1622 5000 SHRA TSRA SCT035CB
    TEMPO 1617/1620 VRB15G25KT 2500 +SHRA TSRAGR BKN025CB=
ZCZC
FT151700 EHRD     ROTTERDAM/THE HAGUE AIRPORT   NLD   -5 m.
TAF EHRD 151708Z 1518/1624 36005KT 9999 SCT035
    PROB30 TEMPO 1518/1520 VRB15KT 4000 TSRA SCT030CB
    PROB30 1522/1606 4500 BR MIFG
    BECMG 1603/1605 09005KT
    PROB40 TEMPO 1611/1621 5000 SHRA TSRA SCT035CB
    TEMPO 1615/1618 VRB15G35KT 2500 +SHRA TSRAGR BKN025CB=
ZCZC
FT151700 EHEH     EINDHOVEN/EINDHOVEN   NLD   22 m.
TAF EHEH 151754Z 1518/1624 VRB03KT CAVOK
    PROB30 TEMPO 1518/1521 VRB15G25KT 3000 SHRA TSRA SCT025CB
    BKN030
    BECMG 1520/1523 06002KT 3000 BR MIFG
    PROB30 1601/1606 1500 BCFG BKN001
    BECMG 1606/1608 9999 NSW FEW025
    BECMG 1608/1610 13005KT
    TEMPO 1612/1623 VRB15G25KT 3000 SHRA TSRA SCT030CB BKN040
    PROB40 TEMPO 1616/1621 VRB15G35KT 2000 +TSRAGR SCT012
    BKN025CB=
Bron: KNMI website
Laatste update op 15-08-2020 om 21:09
ZCZC
SA151825 EHFS     VLISSINGEN AWS   NLD   8 m.
METAR EHFS 151825Z AUTO 01006KT 330V040 9999 NSC 24/19 Q1013=
ZCZC
SA151825 EHSG     BSA   NLD   43 m.
METAR EHSG 151825Z AUTO 04009KT 010V070 //// // NSC 20/19 Q1013 RE//=
ZCZC
SA151855 EHKD     DE KOOY/DE KOOY   NLD   1 m.
METAR EHKD 151855Z AUTO 07009KT 040V100 9999 OVC120 23/20 Q1014 BLU=
ZCZC
SA151855 EHFD     F3-FB-1   NLD   50 m.
METAR EHFD 151855Z AUTO /////KT //// // SCT007/// BKN008/// 17/14
Q1016 RE//=
ZCZC
SA151855 EHAM     AMSTERDAM/SCHIPHOL   NLD   -3 m.
METAR EHAM 151855Z 34006KT 9999 -SHRA FEW025CB 23/20 Q1013 NOSIG=
ZCZC
SA151855 EHVL     VLIELAND   NLD   10 m.
METAR EHVL 151855Z AUTO 05008KT 9999 OVC200 20/18 Q1014 BLU=
ZCZC
SA151855 EHJR     K13-A   NLD   37 m.
METAR EHJR 151855Z AUTO 00000KT //// // ///////// 19/18 Q1015 RE//
W19/H9=
ZCZC
SA151855 EHLE     LELYSTAD/LELYSTAD   NLD   -3 m.
METAR EHLE 151855Z AUTO 04007KT 6000 FEW015CB 24/21 Q1014 TEMPO 5000
SHRA=
ZCZC
SA151855 EHLW     LEEUWARDEN/LEEUWARDEN   NLD   1 m.
METAR EHLW 151855Z AUTO 05008KT 360V100 9999 OVC130 20/18 Q1014 BLU=
ZCZC
SA151855 EHDL     ARNHEM/DEELEN   NLD   48 m.
METAR EHDL 151855Z AUTO VRB02KT 9999 BKN042 OVC047 21/17 Q1014 BLU=
ZCZC
SA151855 EHGG     GRONINGEN/EELDE   NLD   5 m.
METAR EHGG 151855Z AUTO 02006KT 350V050 9999 NCD 22/17 Q1014 TEMPO
VRB10G20KT 4000 TSRA SCT030CB=
ZCZC
SA151855 EHSC     LICHTEILAND GOEREE   NLD   22 m.
METAR EHSC 151855Z AUTO 04011KT 5000 BR ///////// 20/19 Q1013 W21/H7=
ZCZC
SA151855 EHSA     EURO PLATFORM   NLD   19 m.
METAR EHSA 151855Z AUTO 02009KT 4000 BR ///////// 20/19 Q1014 W18/H8=
ZCZC
SA151855 EHWO     WOENSDRECHT/WOENSDRECHT   NLD   19 m.
METAR EHWO 151855Z AUTO VRB01KT 9999 FEW015CB OVC100 20/19 Q1013 BLU=
ZCZC
SA151855 EHRD     ROTTERDAM/THE HAGUE AIRPORT   NLD   -5 m.
METAR EHRD 151855Z AUTO 33003KT 280V020 9999 -RA NSC 23/18 Q1013
TEMPO VRB10KT 5000 TSRA FEW035CB=
ZCZC
SA151855 EHGR     GILZE-RIJEN/GILZE-RIJEN   NLD   14 m.
METAR EHGR 151855Z AUTO 20002KT 9999 OVC120 20/19 Q1013 BLU=
ZCZC
SA151855 EHEH     EINDHOVEN/EINDHOVEN   NLD   22 m.
METAR EHEH 151855Z AUTO 01003KT 340V080 5000 BR NCD 21/20 Q1014
WHT TEMPO 3500 BR MIFG=
ZCZC
SA151855 EHVK     VOLKEL/VOLKEL   NLD   21 m.
METAR EHVK 151855Z AUTO 19003KT 9999 BKN091 OVC180 23/19 Q1013 BLU=
ZCZC
SA151855 EHBK     MAASTRICHT/MAASTRICHT-AACHEN   NLD   114 m.
METAR EHBK 151855Z AUTO 08004KT 9999 NSC 22/17 Q1013 NOSIG=
ZCZC
SA151855 EHFZ     F16-A   NLD   43 m.
METAR EHFZ 151855Z AUTO 06018KT 9999 SCT007 BKN008 OVC047 18/16
Q1016=
ZCZC
SA151855 EHKV     K14-FA-1C   NLD   41 m.
METAR EHKV 151855Z AUTO 35017KT 9999 NSC 19/18 Q1015=
ZCZC
SA151855 EHMG     L9-FF-1   NLD   44 m.
METAR EHMG 151855Z AUTO 06016KT 9999 NSC 20/19 Q1015=
ZCZC
SA151855 EHMA     AWG-1   NLD   40 m.
METAR EHMA 151855Z AUTO 04011KT 9999 NSC 20/17 Q1015=
ZCZC
SA151855 EHDV     D15-FA-1   NLD   42 m.
METAR EHDV 151855Z AUTO VRB15KT 9999 BKN009/// BKN011/// 17/15 Q1016=
ZCZC
SA151855 EHAK     A12-CPP   NLD   48 m.
METAR EHAK 151855Z AUTO 06014KT 9999 SCT009/// OVC011/// 15/13 Q1017=
ZCZC
SA151855 EHQE     HOORN-A   NLD   50 m.
METAR EHQE 151855Z AUTO 04016KT 9999 NSC 21/20 Q1014=
ZCZC
SA151855 EHJA     J6-A   NLD   45 m.
METAR EHJA 151855Z AUTO 04017KT 9999 FEW007/// SCT008/// BKN009///
18/16 Q1015=
ZCZC
SA151855 EHPG     P11-B   NLD   41 m.
METAR EHPG 151855Z AUTO 03007KT 360V060 0150 -RA VV000 18/18 Q1014
RERA=
ZCZC
SA151855 EHHW     BUITENGAATS/BG-OHVS2      42 m.
METAR EHHW 151855Z AUTO 06013KT 9999 FEW006/// 19/17 Q1015=